createdAt,value
2017-06-25T00:01:03.986Z,100127.06
2017-06-25T00:03:31.406Z,100118.41
2017-06-25T00:06:00.127Z,100129.10
2017-06-25T00:08:27.703Z,100130.19
2017-06-25T00:10:55.478Z,100122.03
2017-06-25T00:13:22.914Z,100118.13
2017-06-25T00:15:53.693Z,100122.03
2017-06-25T00:18:23.903Z,100123.66
2017-06-25T00:20:51.903Z,100124.03
2017-06-25T00:23:19.316Z,100121.47
2017-06-25T00:25:46.963Z,100124.70
2017-06-25T00:28:14.383Z,100124.86
2017-06-25T00:30:42.262Z,100114.28
2017-06-25T00:33:10.671Z,100114.63
2017-06-25T00:35:38.216Z,100108.00
2017-06-25T00:38:08.345Z,100101.00
2017-06-25T00:40:35.762Z,100107.06
2017-06-25T00:43:03.193Z,100107.36
2017-06-25T00:45:31.085Z,100104.87
2017-06-25T00:47:58.859Z,100106.23
2017-06-25T00:50:26.278Z,100093.09
2017-06-25T00:52:59.314Z,100088.88
2017-06-25T00:55:27.035Z,100084.59
2017-06-25T00:57:55.475Z,100090.69
2017-06-25T01:00:23.250Z,100075.48
2017-06-25T01:02:57.202Z,100084.78
2017-06-25T01:05:24.781Z,100083.54
2017-06-25T01:07:52.194Z,100081.39
2017-06-25T01:10:19.611Z,100079.22
2017-06-25T01:12:47.033Z,100082.75
2017-06-25T01:15:14.455Z,100076.92
2017-06-25T01:17:42.365Z,100080.61
2017-06-25T01:20:09.781Z,100088.33
2017-06-25T01:22:37.195Z,100076.41
2017-06-25T01:25:06.671Z,100080.73
2017-06-25T01:27:35.360Z,100077.91
2017-06-25T01:30:02.896Z,100068.31
2017-06-25T01:32:30.347Z,100071.66
2017-06-25T01:34:57.877Z,100065.94
2017-06-25T01:37:25.298Z,100062.96
2017-06-25T01:39:52.740Z,100065.36
2017-06-25T01:42:20.198Z,100062.92
2017-06-25T01:44:48.144Z,100061.83
2017-06-25T01:47:15.557Z,100066.98
2017-06-25T01:49:42.996Z,100054.42
2017-06-25T01:52:10.430Z,100059.61
2017-06-25T01:54:38.783Z,100057.55
2017-06-25T01:57:12.731Z,100050.93
2017-06-25T01:59:40.522Z,100049.88
2017-06-25T02:02:22.435Z,100055.93
2017-06-25T02:04:50.355Z,100059.62
2017-06-25T02:07:17.779Z,100058.54
2017-06-25T02:09:45.195Z,100060.30
2017-06-25T02:12:12.965Z,100055.98
2017-06-25T02:14:40.390Z,100053.65
2017-06-25T02:17:09.340Z,100055.71
2017-06-25T02:19:39.215Z,100039.20
2017-06-25T02:22:06.631Z,100048.13
2017-06-25T02:24:34.231Z,100056.64
2017-06-25T02:27:02.381Z,100048.00
2017-06-25T02:29:30.604Z,100057.33
2017-06-25T02:31:58.013Z,100061.35
2017-06-25T02:34:25.423Z,100049.27
2017-06-25T02:36:52.844Z,100049.31
2017-06-25T02:39:20.724Z,100052.45
2017-06-25T02:41:50.625Z,100056.24
2017-06-25T02:44:18.043Z,100058.84
2017-06-25T02:46:45.470Z,100057.14
2017-06-25T02:49:12.898Z,100054.14
2017-06-25T02:51:40.314Z,100059.47
2017-06-25T02:54:07.897Z,100054.34
2017-06-25T02:56:42.007Z,100058.41
2017-06-25T02:59:09.544Z,100053.38
2017-06-25T03:01:37.422Z,100056.61
2017-06-25T03:04:04.863Z,100048.94
2017-06-25T03:06:33.416Z,100044.58
2017-06-25T03:09:25.310Z,100045.25
2017-06-25T03:11:54.784Z,100044.46
2017-06-25T03:14:24.594Z,100040.70
2017-06-25T03:16:55.113Z,100040.25
2017-06-25T03:19:29.232Z,100037.81
2017-06-25T03:21:56.704Z,100034.72
2017-06-25T03:24:24.133Z,100028.59
2017-06-25T03:26:51.582Z,100029.27
2017-06-25T03:29:19.783Z,100032.42
2017-06-25T03:31:49.613Z,100027.39
2017-06-25T03:34:17.091Z,100028.36
2017-06-25T03:36:45.131Z,100030.84
2017-06-25T03:39:13.873Z,100023.81
2017-06-25T03:41:41.342Z,100032.61
2017-06-25T03:44:12.209Z,100016.52
2017-06-25T03:46:40.119Z,100013.33
2017-06-25T03:49:07.602Z,100005.47
2017-06-25T03:51:38.065Z,100009.68
2017-06-25T03:54:12.539Z,100008.70
2017-06-25T03:56:41.146Z,100007.77
2017-06-25T03:59:09.593Z,99999.27
2017-06-25T04:01:37.391Z,100009.53
2017-06-25T04:04:05.332Z,100010.66
2017-06-25T04:06:39.774Z,100015.66
2017-06-25T04:09:08.243Z,100010.22
2017-06-25T04:11:37.221Z,100017.27
2017-06-25T04:14:04.715Z,100027.18
2017-06-25T04:16:32.328Z,100026.94
2017-06-25T04:19:01.343Z,100035.17
2017-06-25T04:21:29.206Z,100033.67
2017-06-25T04:23:56.687Z,100038.07
2017-06-25T04:26:26.636Z,100031.02
2017-06-25T04:28:54.067Z,100031.66
2017-06-25T04:31:29.402Z,100029.92
2017-06-25T04:33:56.909Z,100031.14
2017-06-25T04:36:24.946Z,100031.97
2017-06-25T04:38:52.394Z,100027.94
2017-06-25T04:41:20.480Z,100032.78
2017-06-25T04:43:47.943Z,100024.68
2017-06-25T04:46:15.629Z,100009.70
2017-06-25T04:48:43.051Z,100023.05
2017-06-25T04:51:11.008Z,100013.89
2017-06-25T04:53:45.086Z,100017.42
2017-06-25T04:56:12.494Z,100016.73
2017-06-25T04:58:39.935Z,100019.59
2017-06-25T05:01:07.977Z,100020.13
2017-06-25T05:03:35.960Z,100014.16
2017-06-25T05:06:03.421Z,100020.12
2017-06-25T05:08:34.454Z,100016.63
2017-06-25T05:11:01.862Z,100021.23
2017-06-25T05:13:29.742Z,100020.80
2017-06-25T05:15:57.163Z,100025.41
2017-06-25T05:18:26.158Z,100027.98
2017-06-25T05:20:53.845Z,100016.08
2017-06-25T05:23:21.748Z,100014.73
2017-06-25T05:25:49.188Z,100019.64
2017-06-25T05:28:16.590Z,100016.11
2017-06-25T05:30:44.168Z,100015.45
2017-06-25T05:33:11.591Z,100016.24
2017-06-25T05:35:38.998Z,100016.80
2017-06-25T05:38:06.422Z,100028.41
2017-06-25T05:40:33.891Z,100029.50
2017-06-25T05:43:02.643Z,100027.47
2017-06-25T05:45:30.801Z,100026.78
2017-06-25T05:47:58.391Z,100018.29
2017-06-25T05:50:25.818Z,100025.83
2017-06-25T05:52:53.399Z,100027.61
2017-06-25T05:55:20.918Z,100018.25
2017-06-25T05:57:48.339Z,100010.24
2017-06-25T06:00:15.747Z,100013.78
2017-06-25T06:02:43.639Z,100016.47
2017-06-25T06:05:11.051Z,100013.23
2017-06-25T06:07:38.946Z,100015.27
2017-06-25T06:10:06.358Z,100017.03
2017-06-25T06:12:34.311Z,100020.19
2017-06-25T06:15:01.741Z,100014.36
2017-06-25T06:17:29.220Z,100016.13
2017-06-25T06:19:56.674Z,100006.53
2017-06-25T06:22:24.091Z,100009.38
2017-06-25T06:24:51.514Z,100011.66
2017-06-25T06:27:18.938Z,100011.38
2017-06-25T06:29:46.360Z,100009.77
2017-06-25T06:32:14.080Z,100008.25
2017-06-25T06:34:41.491Z,100006.49
2017-06-25T06:37:08.911Z,100008.11
2017-06-25T06:39:36.350Z,100004.84
2017-06-25T06:42:03.767Z,100007.17
2017-06-25T06:44:31.425Z,100008.91
2017-06-25T06:46:58.864Z,100006.89
2017-06-25T06:49:26.275Z,100004.98
2017-06-25T06:51:53.698Z,100009.87
2017-06-25T06:54:21.110Z,100021.10
2017-06-25T06:56:48.713Z,100021.59
2017-06-25T06:59:16.455Z,100014.03
2017-06-25T07:01:44.311Z,100011.13
2017-06-25T07:04:11.754Z,100014.03
2017-06-25T07:06:40.550Z,100008.73
2017-06-25T07:09:08.002Z,100006.33
2017-06-25T07:11:35.507Z,100004.83
2017-06-25T07:14:02.919Z,100010.37
2017-06-25T07:16:30.359Z,100006.59
2017-06-25T07:18:57.781Z,100011.50
2017-06-25T07:21:27.658Z,100008.11
2017-06-25T07:23:55.084Z,100022.73
2017-06-25T07:26:22.834Z,100021.52
2017-06-25T07:28:50.250Z,100024.35
2017-06-25T07:31:19.055Z,100028.81
2017-06-25T07:33:46.627Z,100030.27
2017-06-25T07:36:14.046Z,100038.97
2017-06-25T07:38:42.067Z,100029.77
2017-06-25T07:41:10.118Z,100030.06
2017-06-25T07:43:37.684Z,100025.11
2017-06-25T07:46:05.532Z,100025.65
2017-06-25T07:48:32.959Z,100035.98
2017-06-25T07:51:00.387Z,100035.05
2017-06-25T07:53:27.823Z,100042.47
2017-06-25T07:55:55.235Z,100045.85
2017-06-25T07:58:41.715Z,100052.87
2017-06-25T08:01:17.084Z,100052.19
2017-06-25T08:03:44.541Z,100045.83
2017-06-25T08:06:12.287Z,100039.86
2017-06-25T08:08:40.187Z,100047.17
2017-06-25T08:11:09.692Z,100053.16
2017-06-25T08:13:37.496Z,100050.44
2017-06-25T08:16:05.374Z,100048.02
2017-06-25T08:18:33.995Z,100040.67
2017-06-25T08:21:01.875Z,100046.63
2017-06-25T08:23:30.021Z,100050.00
2017-06-25T08:25:57.459Z,100048.77
2017-06-25T08:28:24.999Z,100057.78
2017-06-25T08:30:52.418Z,100055.73
2017-06-25T08:33:19.848Z,100064.98
2017-06-25T08:35:47.294Z,100067.95
2017-06-25T08:38:14.716Z,100071.93
2017-06-25T08:40:42.507Z,100062.02
2017-06-25T08:43:09.934Z,100064.73
2017-06-25T08:45:38.853Z,100063.53
2017-06-25T08:48:06.304Z,100053.13
2017-06-25T08:50:33.739Z,100061.09
2017-06-25T08:53:02.062Z,100067.37
2017-06-25T08:55:29.490Z,100062.38
2017-06-25T08:57:56.916Z,100063.44
2017-06-25T09:00:24.358Z,100064.91
2017-06-25T09:02:51.777Z,100063.32
2017-06-25T09:05:19.576Z,100050.58
2017-06-25T09:07:47.900Z,100060.75
2017-06-25T09:10:15.333Z,100063.16
2017-06-25T09:12:42.795Z,100052.19
2017-06-25T09:15:10.236Z,100054.17
2017-06-25T09:17:38.059Z,100056.94
2017-06-25T09:20:05.503Z,100056.83
2017-06-25T09:22:32.937Z,100059.30
2017-06-25T09:25:03.932Z,100062.62
2017-06-25T09:27:31.992Z,100066.31
2017-06-25T09:30:00.139Z,100059.06
2017-06-25T09:32:27.588Z,100067.63
2017-06-25T09:34:55.023Z,100078.39
2017-06-25T09:37:22.479Z,100078.66
2017-06-25T09:39:49.911Z,100069.32
2017-06-25T09:42:17.343Z,100076.04
2017-06-25T09:44:44.779Z,100083.33
2017-06-25T09:47:12.416Z,100083.05
2017-06-25T09:49:39.978Z,100073.50
2017-06-25T09:52:07.654Z,100071.69
2017-06-25T09:54:37.703Z,100076.38
2017-06-25T09:57:05.134Z,100078.99
2017-06-25T09:59:32.584Z,100079.98
2017-06-25T10:02:00.188Z,100081.05
2017-06-25T10:04:27.610Z,100081.91
2017-06-25T10:06:55.643Z,100081.81
2017-06-25T10:09:23.506Z,100073.20
2017-06-25T10:11:50.920Z,100082.25
2017-06-25T10:14:19.986Z,100079.02
2017-06-25T10:16:47.780Z,100083.00
2017-06-25T10:19:15.310Z,100086.53
2017-06-25T10:21:43.218Z,100079.53
2017-06-25T10:24:10.670Z,100079.35
2017-06-25T10:26:38.076Z,100074.77
2017-06-25T10:29:05.550Z,100079.81
2017-06-25T10:31:32.997Z,100094.94
2017-06-25T10:34:00.408Z,100102.63
2017-06-25T10:36:28.166Z,100105.48
2017-06-25T10:38:55.598Z,100106.08
2017-06-25T10:41:25.472Z,100095.44
2017-06-25T10:43:53.358Z,100103.73
2017-06-25T10:46:21.011Z,100099.17
2017-06-25T10:48:49.420Z,100098.92
2017-06-25T10:51:19.338Z,100100.64
2017-06-25T10:53:48.223Z,100090.69
2017-06-25T10:56:17.981Z,100094.48
2017-06-25T10:58:45.403Z,100094.45
2017-06-25T11:01:12.818Z,100104.52
2017-06-25T11:03:40.238Z,100101.37
2017-06-25T11:06:08.098Z,100101.91
2017-06-25T11:08:37.999Z,100095.83
2017-06-25T11:11:05.896Z,100088.67
2017-06-25T11:13:33.474Z,100100.53
2017-06-25T11:16:00.914Z,100101.84
2017-06-25T11:18:28.421Z,100113.06
2017-06-25T11:20:55.879Z,100119.88
2017-06-25T11:23:26.344Z,100103.42
2017-06-25T11:25:53.763Z,100106.11
2017-06-25T11:28:21.332Z,100097.26
2017-06-25T11:30:49.928Z,100106.56
2017-06-25T11:33:19.701Z,100114.47
2017-06-25T11:35:47.171Z,100100.92
2017-06-25T11:38:14.583Z,100100.67
2017-06-25T11:40:42.003Z,100108.20
2017-06-25T11:43:09.575Z,100097.05
2017-06-25T11:45:37.316Z,100109.58
2017-06-25T11:48:06.394Z,100119.14
2017-06-25T11:53:06.311Z,100114.17
2017-06-25T11:55:36.751Z,100103.17
2017-06-25T11:58:04.160Z,100122.54
2017-06-25T12:00:31.570Z,100107.39
2017-06-25T12:02:59.021Z,100111.08
2017-06-25T12:05:26.446Z,100114.95
2017-06-25T12:07:54.288Z,100111.66
2017-06-25T12:10:21.695Z,100110.01
2017-06-25T12:12:49.110Z,100109.94
2017-06-25T12:15:16.533Z,100114.66
2017-06-25T12:17:44.902Z,100112.46
2017-06-25T12:20:12.674Z,100112.12
2017-06-25T12:22:42.708Z,100112.38
2017-06-25T12:25:17.265Z,100107.38
2017-06-25T12:27:44.714Z,100116.67
2017-06-25T12:30:12.519Z,100114.74
2017-06-25T12:32:39.941Z,100113.62
2017-06-25T12:35:07.359Z,100113.05
2017-06-25T12:37:35.324Z,100111.97
2017-06-25T12:40:03.690Z,100114.02
2017-06-25T12:42:31.117Z,100114.58
2017-06-25T12:44:58.535Z,100109.36
2017-06-25T12:47:25.947Z,100099.50
2017-06-25T12:49:53.518Z,100104.45
2017-06-25T12:52:20.927Z,100109.97
2017-06-25T12:54:48.363Z,100112.49
2017-06-25T12:57:15.789Z,100107.05
2017-06-25T12:59:43.931Z,100116.70
2017-06-25T13:02:11.801Z,100107.20
2017-06-25T13:04:45.303Z,100114.20
2017-06-25T13:07:12.734Z,100104.70
2017-06-25T13:09:40.482Z,100110.45
2017-06-25T13:12:07.903Z,100115.24
2017-06-25T13:14:35.327Z,100111.56
2017-06-25T13:17:03.804Z,100106.74
2017-06-25T13:19:32.090Z,100112.20
2017-06-25T13:21:59.511Z,100108.17
2017-06-25T13:24:28.787Z,100104.63
2017-06-25T13:26:56.208Z,100111.83
2017-06-25T13:29:24.314Z,100111.02
2017-06-25T13:31:52.367Z,100106.46
2017-06-25T13:34:19.782Z,100120.56
2017-06-25T13:36:47.214Z,100109.45
2017-06-25T13:39:15.952Z,100108.13
2017-06-25T13:41:43.643Z,100113.56
2017-06-25T13:44:11.066Z,100103.67
2017-06-25T13:46:38.826Z,100112.00
2017-06-25T13:49:06.247Z,100112.98
2017-06-25T13:51:33.679Z,100108.20
2017-06-25T13:54:01.528Z,100114.34
2017-06-25T13:56:29.511Z,100120.53
2017-06-25T13:58:56.934Z,100120.94
2017-06-25T14:01:24.409Z,100122.98
2017-06-25T14:03:51.975Z,100120.08
2017-06-25T14:06:19.867Z,100126.52
2017-06-25T14:08:48.279Z,100127.59
2017-06-25T14:11:16.151Z,100115.52
2017-06-25T14:13:45.851Z,100125.03
2017-06-25T14:16:14.292Z,100114.13
2017-06-25T14:18:41.723Z,100130.70
2017-06-25T14:21:12.106Z,100123.19
2017-06-25T14:23:40.042Z,100124.17
2017-06-25T14:26:07.516Z,100119.37
2017-06-25T14:28:34.955Z,100123.17
2017-06-25T14:31:02.851Z,100120.57
2017-06-25T14:33:31.091Z,100121.60
2017-06-25T14:35:58.831Z,100118.25
2017-06-25T14:38:26.241Z,100117.48
2017-06-25T14:40:53.670Z,100126.86
2017-06-25T14:43:21.335Z,100110.51
2017-06-25T14:45:49.199Z,100124.13
2017-06-25T14:48:16.955Z,100114.20
2017-06-25T14:50:44.362Z,100119.66
2017-06-25T14:53:11.802Z,100115.89
2017-06-25T14:55:42.695Z,100124.81
2017-06-25T14:58:10.407Z,100122.53
2017-06-25T15:00:39.283Z,100108.84
2017-06-25T15:03:06.719Z,100116.95
2017-06-25T15:05:35.019Z,100118.54
2017-06-25T15:08:03.339Z,100117.72
2017-06-25T15:10:31.282Z,100115.56
2017-06-25T15:12:59.347Z,100110.54
2017-06-25T15:15:27.485Z,100116.08
2017-06-25T15:17:55.066Z,100114.34
2017-06-25T15:20:22.517Z,100109.80
2017-06-25T15:22:50.094Z,100110.67
2017-06-25T15:25:18.769Z,100112.61
2017-06-25T15:27:46.784Z,100111.55
2017-06-25T15:30:15.630Z,100106.30
2017-06-25T15:32:49.165Z,100106.64
2017-06-25T15:35:19.649Z,100100.22
2017-06-25T15:37:47.983Z,100100.63
2017-06-25T15:40:19.080Z,100100.73
2017-06-25T15:42:46.887Z,100101.44
2017-06-25T15:45:14.689Z,100103.50
2017-06-25T15:47:42.829Z,100102.22
2017-06-25T15:50:10.285Z,100089.27
2017-06-25T15:52:40.214Z,100086.27
2017-06-25T15:55:07.648Z,100088.17
2017-06-25T15:57:35.078Z,100076.17
2017-06-25T16:00:02.611Z,100073.36
2017-06-25T16:02:30.558Z,100081.35
2017-06-25T16:04:58.186Z,100085.63
2017-06-25T16:07:25.646Z,100077.94
2017-06-25T16:09:54.379Z,100081.77
2017-06-25T16:12:22.590Z,100076.58
2017-06-25T16:14:50.685Z,100075.44
2017-06-25T16:17:18.922Z,100072.91
2017-06-25T16:19:46.376Z,100073.52
2017-06-25T16:22:15.043Z,100065.64
2017-06-25T16:24:43.138Z,100068.90
2017-06-25T16:27:10.843Z,100068.36
2017-06-25T16:29:38.630Z,100064.41
2017-06-25T16:32:06.059Z,100066.15
2017-06-25T16:34:33.472Z,100059.98
2017-06-25T16:37:01.514Z,100055.61
2017-06-25T16:39:28.931Z,100064.97
2017-06-25T16:41:56.353Z,100049.12
2017-06-25T16:44:23.972Z,100046.42
2017-06-25T16:46:53.714Z,100052.28
2017-06-25T16:49:21.132Z,100052.98
2017-06-25T16:51:48.672Z,100064.28
2017-06-25T16:54:17.016Z,100059.53
2017-06-25T16:56:44.427Z,100057.42
2017-06-25T16:59:11.868Z,100051.80
2017-06-25T17:01:41.163Z,100053.39
2017-06-25T17:04:08.585Z,100055.64
2017-06-25T17:06:36.058Z,100048.62
2017-06-25T17:09:03.491Z,100050.55
2017-06-25T17:11:31.367Z,100056.34
2017-06-25T17:13:58.794Z,100052.41
2017-06-25T17:16:26.863Z,100048.81
2017-06-25T17:18:54.814Z,100041.88
2017-06-25T17:21:22.415Z,100040.23
2017-06-25T17:23:51.093Z,100032.23
2017-06-25T17:28:57.059Z,100038.55
2017-06-25T17:31:24.473Z,100032.13
2017-06-25T17:33:54.970Z,100029.95
2017-06-25T17:36:22.519Z,100029.98
2017-06-25T17:38:50.988Z,100033.69
2017-06-25T17:41:18.414Z,100029.30
2017-06-25T17:43:50.781Z,100029.70
2017-06-25T17:46:18.245Z,100029.51
2017-06-25T17:48:45.693Z,100032.98
2017-06-25T17:51:14.094Z,100029.77
2017-06-25T17:53:41.510Z,100023.95
2017-06-25T17:56:09.271Z,100028.69
2017-06-25T17:58:36.727Z,100029.25
2017-06-25T18:01:07.164Z,100030.61
2017-06-25T18:03:34.587Z,100027.33
2017-06-25T18:06:02.159Z,100025.34
2017-06-25T18:08:29.587Z,100028.25
2017-06-25T18:10:57.035Z,100024.05
2017-06-25T18:13:24.507Z,100028.16
2017-06-25T18:15:52.275Z,100026.16
2017-06-25T18:18:19.741Z,100027.05
2017-06-25T18:20:48.191Z,100027.13
2017-06-25T18:23:15.662Z,100025.89
2017-06-25T18:25:43.363Z,100026.10
2017-06-25T18:28:11.213Z,100022.35
2017-06-25T18:30:38.638Z,100026.56
2017-06-25T18:33:06.058Z,100019.05
2017-06-25T18:35:33.712Z,100024.06
2017-06-25T18:38:03.418Z,100027.47
2017-06-25T18:40:30.855Z,100025.20
2017-06-25T18:43:01.162Z,100023.14
2017-06-25T18:45:28.993Z,100023.07
2017-06-25T18:47:56.436Z,100019.81
2017-06-25T18:50:24.733Z,100025.77
2017-06-25T18:52:52.163Z,100024.66
2017-06-25T18:55:19.831Z,100019.65
2017-06-25T18:57:48.072Z,100014.09
2017-06-25T19:00:15.562Z,100027.80
2017-06-25T19:02:43.022Z,100023.64
2017-06-25T19:05:10.523Z,100019.75
2017-06-25T19:07:37.976Z,100019.62
2017-06-25T19:10:05.415Z,100018.16
2017-06-25T19:12:32.990Z,100019.39
2017-06-25T19:15:00.447Z,100016.93
2017-06-25T19:17:27.906Z,100019.86
2017-06-25T19:19:56.453Z,100021.29
2017-06-25T19:22:23.875Z,100018.58
2017-06-25T19:24:52.046Z,100021.86
2017-06-25T19:27:20.435Z,100020.58
2017-06-25T19:29:49.991Z,100024.95
2017-06-25T19:32:17.714Z,100018.67
2017-06-25T19:34:47.899Z,100019.83
2017-06-25T19:37:15.310Z,100031.21
2017-06-25T19:39:43.239Z,100026.21
2017-06-25T19:42:11.314Z,100033.46
2017-06-25T19:44:38.756Z,100038.79
2017-06-25T19:47:06.208Z,100036.90
2017-06-25T19:49:34.756Z,100048.30
2017-06-25T19:52:02.297Z,100038.87
2017-06-25T19:54:29.737Z,100033.28
2017-06-25T19:56:57.707Z,100047.56
2017-06-25T19:59:25.595Z,100053.51
2017-06-25T20:01:54.306Z,100055.36
2017-06-25T20:04:23.539Z,100056.77
2017-06-25T20:06:51.430Z,100047.53
2017-06-25T20:09:18.848Z,100064.64
2017-06-25T20:11:46.524Z,100070.14
2017-06-25T20:14:24.378Z,100070.73
2017-06-25T20:16:54.796Z,100064.31
2017-06-25T20:19:22.219Z,100077.72
2017-06-25T20:21:49.660Z,100080.41
2017-06-25T20:24:17.116Z,100083.00
2017-06-25T20:26:44.563Z,100072.52
2017-06-25T20:29:11.995Z,100090.56
2017-06-25T20:31:39.798Z,100090.03
2017-06-25T20:34:07.215Z,100090.81
2017-06-25T20:36:34.626Z,100082.02
2017-06-25T20:39:02.116Z,100084.34
2017-06-25T20:41:29.550Z,100082.33
2017-06-25T20:43:57.298Z,100079.12
2017-06-25T20:46:27.420Z,100079.50
2017-06-25T20:48:54.839Z,100080.30
2017-06-25T20:51:22.264Z,100087.32
2017-06-25T20:53:50.648Z,100077.89
2017-06-25T20:56:18.368Z,100081.08
2017-06-25T20:58:45.793Z,100091.24
2017-06-25T21:01:13.481Z,100091.86
2017-06-25T21:03:40.907Z,100097.22
2017-06-25T21:06:08.323Z,100086.42
2017-06-25T21:08:38.119Z,100087.59
2017-06-25T21:11:05.642Z,100093.17
2017-06-25T21:13:33.693Z,100097.02
2017-06-25T21:16:01.182Z,100092.72
2017-06-25T21:18:28.807Z,100097.09
2017-06-25T21:20:56.827Z,100102.95
2017-06-25T21:23:25.419Z,100100.25
2017-06-25T21:25:52.833Z,100104.05
2017-06-25T21:28:20.588Z,100096.75
2017-06-25T21:30:48.225Z,100112.20
2017-06-25T21:33:16.127Z,100104.38
2017-06-25T21:35:43.547Z,100107.78
2017-06-25T21:38:12.542Z,100106.58
2017-06-25T21:40:39.951Z,100105.14
2017-06-25T21:43:07.377Z,100103.91
2017-06-25T21:45:35.047Z,100106.50
2017-06-25T21:48:03.166Z,100114.72
2017-06-25T21:50:31.414Z,100114.42
2017-06-25T21:53:00.428Z,100112.95
2017-06-25T21:55:28.795Z,100110.12
2017-06-25T21:57:56.246Z,100112.28
2017-06-25T22:00:24.127Z,100117.96
2017-06-25T22:02:52.147Z,100112.69
2017-06-25T22:05:19.570Z,100102.92
2017-06-25T22:07:49.176Z,100099.93
2017-06-25T22:10:16.600Z,100097.92
2017-06-25T22:12:44.479Z,100099.45
2017-06-25T22:15:12.487Z,100102.17
2017-06-25T22:17:40.758Z,100095.69
2017-06-25T22:20:08.533Z,100096.75
2017-06-25T22:22:36.618Z,100100.98
2017-06-25T22:25:05.505Z,100101.11
2017-06-25T22:27:33.043Z,100098.55
2017-06-25T22:30:01.259Z,100100.98
2017-06-25T22:32:28.685Z,100090.46
2017-06-25T22:34:56.423Z,100091.94
2017-06-25T22:37:24.109Z,100090.70
2017-06-25T22:39:54.985Z,100090.86
2017-06-25T22:42:22.416Z,100084.64
2017-06-25T22:44:49.902Z,100084.64
2017-06-25T22:47:17.542Z,100090.31
2017-06-25T22:49:45.677Z,100086.66
2017-06-25T22:52:13.115Z,100086.66
2017-06-25T22:54:40.523Z,100098.83
2017-06-25T22:57:07.930Z,100087.48
2017-06-25T22:59:36.494Z,100092.74
2017-06-25T23:02:04.628Z,100091.80
2017-06-25T23:04:32.030Z,100088.95
2017-06-25T23:06:59.822Z,100096.52
2017-06-25T23:09:27.360Z,100090.70
2017-06-25T23:11:54.811Z,100084.50
2017-06-25T23:14:22.805Z,100084.65
2017-06-25T23:16:50.232Z,100077.75
2017-06-25T23:19:18.154Z,100082.89
2017-06-25T23:21:48.890Z,100078.55
2017-06-25T23:24:16.683Z,100081.66
2017-06-25T23:26:44.100Z,100083.16
2017-06-25T23:29:13.278Z,100085.17
2017-06-25T23:31:40.701Z,100086.81
2017-06-25T23:34:08.111Z,100081.95
2017-06-25T23:36:36.202Z,100083.42
2017-06-25T23:39:03.615Z,100087.63
2017-06-25T23:44:26.974Z,100077.08
2017-06-25T23:46:54.446Z,100071.93
2017-06-25T23:49:22.193Z,100070.84
2017-06-25T23:51:49.850Z,100069.63
2017-06-25T23:54:17.382Z,100074.08
2017-06-25T23:56:44.802Z,100077.59
2017-06-25T23:59:12.224Z,100073.70
